createdAt,value
2024-02-24T00:00:00.564Z,75.9
2024-02-24T00:01:00.377Z,83.1
2024-02-24T00:02:00.386Z,83.1
2024-02-24T00:03:00.304Z,274.5
2024-02-24T00:04:00.338Z,274.5
2024-02-24T00:05:00.340Z,274.5
2024-02-24T00:06:00.442Z,104.0
2024-02-24T00:08:00.245Z,104.0
2024-02-24T00:09:00.356Z,188.2
2024-02-24T00:10:00.346Z,188.2
2024-02-24T00:11:00.313Z,188.2
2024-02-24T00:12:00.355Z,188.4
2024-02-24T00:13:00.316Z,188.4
2024-02-24T00:14:00.447Z,188.4
2024-02-24T00:15:00.476Z,188.4
2024-02-24T00:16:03.044Z,188.4
2024-02-24T00:17:00.340Z,188.4
2024-02-24T00:18:00.382Z,70.6
2024-02-24T00:19:00.429Z,70.6
2024-02-24T00:20:00.338Z,70.6
2024-02-24T00:21:00.313Z,91.5
2024-02-24T00:22:00.292Z,91.5
2024-02-24T00:23:00.477Z,91.5
2024-02-24T00:24:00.296Z,83.1
2024-02-24T00:25:00.317Z,83.1
2024-02-24T00:26:00.333Z,83.1
2024-02-24T00:27:00.356Z,167.0
2024-02-24T00:28:00.271Z,167.0
2024-02-24T00:30:00.380Z,167.0
2024-02-24T00:31:00.293Z,90.2
2024-02-24T00:32:00.339Z,90.2
2024-02-24T00:33:00.384Z,90.2
2024-02-24T00:34:00.417Z,395.9
2024-02-24T00:35:00.379Z,395.9
2024-02-24T00:36:01.486Z,334.7
2024-02-24T00:37:00.334Z,334.7
2024-02-24T00:38:00.231Z,334.7
2024-02-24T00:39:00.288Z,541.0
2024-02-24T00:40:00.416Z,541.0
2024-02-24T00:41:00.330Z,541.0
2024-02-24T00:42:00.467Z,392.3
2024-02-24T00:43:00.293Z,392.3
2024-02-24T00:44:00.340Z,392.3
2024-02-24T00:45:00.344Z,108.4
2024-02-24T00:46:00.304Z,108.4
2024-02-24T00:47:00.359Z,108.4
2024-02-24T00:48:00.302Z,106.0
2024-02-24T00:49:00.348Z,106.0
2024-02-24T00:50:00.353Z,106.0
2024-02-24T00:51:00.320Z,96.6
2024-02-24T00:52:00.307Z,96.6
2024-02-24T00:53:00.416Z,96.6
2024-02-24T00:54:00.443Z,115.8
2024-02-24T00:55:00.354Z,115.8
2024-02-24T00:56:00.314Z,115.8
2024-02-24T00:57:00.295Z,115.8
2024-02-24T00:58:00.270Z,114.8
2024-02-24T00:59:00.336Z,114.8
2024-02-24T01:00:00.421Z,116.4
2024-02-24T01:01:00.377Z,116.4
2024-02-24T01:02:00.306Z,116.4
2024-02-24T01:03:00.298Z,108.7
2024-02-24T01:04:00.484Z,108.7
2024-02-24T01:05:00.364Z,108.7
2024-02-24T01:06:00.335Z,131.9
2024-02-24T01:08:00.263Z,131.9
2024-02-24T01:11:00.379Z,178.3
2024-02-24T01:13:00.374Z,233.0
2024-02-24T01:14:00.378Z,233.0
2024-02-24T01:15:00.517Z,378.0
2024-02-24T01:17:00.348Z,378.0
2024-02-24T01:18:00.678Z,482.6
2024-02-24T01:19:00.447Z,482.6
2024-02-24T01:20:00.339Z,482.6
2024-02-24T01:21:02.028Z,480.1
2024-02-24T01:22:00.318Z,480.1
2024-02-24T01:23:00.338Z,480.1
2024-02-24T01:24:00.386Z,312.9
2024-02-24T01:26:00.329Z,312.9
2024-02-24T01:27:00.307Z,322.5
2024-02-24T01:28:00.230Z,322.5
2024-02-24T01:29:00.352Z,322.5
2024-02-24T01:31:00.330Z,266.1
2024-02-24T01:32:00.324Z,266.1
2024-02-24T01:33:00.475Z,317.7
2024-02-24T01:34:00.422Z,317.7
2024-02-24T01:35:00.475Z,317.7
2024-02-24T01:36:00.346Z,259.0
2024-02-24T01:37:00.298Z,259.0
2024-02-24T01:38:00.246Z,259.0
2024-02-24T01:39:00.283Z,153.9
2024-02-24T01:42:00.365Z,142.5
2024-02-24T01:44:00.337Z,142.5
2024-02-24T01:45:00.807Z,165.0
2024-02-24T01:46:00.302Z,165.0
2024-02-24T01:47:00.339Z,165.0
2024-02-24T01:48:00.595Z,197.2
2024-02-24T01:49:00.538Z,197.2
2024-02-24T01:50:00.688Z,197.2
2024-02-24T01:51:01.320Z,158.5
2024-02-24T01:53:00.457Z,158.5
2024-02-24T01:54:00.374Z,125.3
2024-02-24T01:55:02.425Z,125.3
2024-02-24T01:57:01.948Z,117.8
2024-02-24T01:58:00.788Z,117.8
2024-02-24T01:59:00.702Z,117.8
2024-02-24T02:00:01.274Z,117.8
2024-02-24T02:02:00.318Z,125.7
2024-02-24T02:04:00.285Z,161.3
2024-02-24T02:05:00.396Z,161.3
2024-02-24T02:06:00.857Z,361.1
2024-02-24T02:07:00.630Z,361.1
2024-02-24T02:08:00.252Z,361.1
2024-02-24T02:09:00.325Z,321.1
2024-02-24T02:10:00.725Z,321.1
2024-02-24T02:11:00.419Z,321.1
2024-02-24T02:12:04.053Z,220.5
2024-02-24T02:13:00.442Z,220.5
2024-02-24T02:14:00.325Z,220.5
2024-02-24T02:15:00.398Z,219.4
2024-02-24T02:16:00.362Z,219.4
2024-02-24T02:17:00.306Z,219.4
2024-02-24T02:18:00.432Z,287.3
2024-02-24T02:19:00.484Z,287.3
2024-02-24T02:20:01.089Z,287.3
2024-02-24T02:21:00.332Z,313.4
2024-02-24T02:22:00.890Z,313.4
2024-02-24T02:23:00.529Z,313.4
2024-02-24T02:24:00.319Z,166.7
2024-02-24T02:25:00.320Z,166.7
2024-02-24T02:26:00.318Z,166.7
2024-02-24T02:27:00.340Z,201.1
2024-02-24T02:28:00.232Z,201.1
2024-02-24T02:29:00.304Z,201.1
2024-02-24T02:30:00.410Z,126.6
2024-02-24T02:31:00.410Z,126.6
2024-02-24T02:32:00.448Z,126.6
2024-02-24T02:33:00.878Z,300.1
2024-02-24T02:34:00.457Z,300.1
2024-02-24T02:35:00.311Z,300.1
2024-02-24T02:36:00.329Z,291.4
2024-02-24T02:37:00.310Z,291.4
2024-02-24T02:38:00.449Z,291.4
2024-02-24T02:39:00.296Z,324.3
2024-02-24T02:40:00.393Z,324.3
2024-02-24T02:41:00.434Z,324.3
2024-02-24T02:42:00.391Z,117.6
2024-02-24T02:43:00.294Z,117.6
2024-02-24T02:45:00.334Z,114.2
2024-02-24T02:46:00.332Z,114.2
2024-02-24T02:47:04.080Z,114.2
2024-02-24T02:48:00.371Z,100.9
2024-02-24T02:49:00.466Z,100.9
2024-02-24T02:50:00.329Z,100.9
2024-02-24T02:51:00.317Z,86.4
2024-02-24T02:52:00.306Z,86.4
2024-02-24T02:53:00.303Z,86.4
2024-02-24T02:54:00.330Z,84.0
2024-02-24T02:55:00.423Z,84.0
2024-02-24T02:56:00.312Z,84.0
2024-02-24T02:57:00.478Z,78.7
2024-02-24T02:58:00.240Z,78.7
2024-02-24T02:59:00.330Z,78.7
2024-02-24T03:00:00.463Z,80.1
2024-02-24T03:01:00.370Z,80.1
2024-02-24T03:02:00.353Z,80.1
2024-02-24T03:03:00.318Z,204.9
2024-02-24T03:04:00.433Z,204.9
2024-02-24T03:05:00.538Z,204.9
2024-02-24T03:06:00.349Z,155.6
2024-02-24T03:07:00.320Z,155.6
2024-02-24T03:08:00.247Z,155.6
2024-02-24T03:09:00.351Z,82.0
2024-02-24T03:10:00.381Z,82.0
2024-02-24T03:11:02.100Z,82.0
2024-02-24T03:12:00.452Z,88.9
2024-02-24T03:13:00.289Z,88.9
2024-02-24T03:14:00.312Z,88.9
2024-02-24T03:15:00.319Z,117.3
2024-02-24T03:16:00.318Z,117.3
2024-02-24T03:17:00.343Z,117.3
2024-02-24T03:18:00.311Z,96.0
2024-02-24T03:19:00.448Z,96.0
2024-02-24T03:20:00.409Z,96.0
2024-02-24T03:21:00.389Z,80.4
2024-02-24T03:22:00.315Z,80.4
2024-02-24T03:23:00.278Z,80.4
2024-02-24T03:24:00.672Z,71.5
2024-02-24T03:25:00.322Z,71.5
2024-02-24T03:26:00.300Z,71.5
2024-02-24T03:27:00.458Z,69.0
2024-02-24T03:28:00.310Z,69.0
2024-02-24T03:29:00.293Z,69.0
2024-02-24T03:30:00.382Z,65.1
2024-02-24T03:31:00.278Z,65.1
2024-02-24T03:32:00.306Z,65.1
2024-02-24T03:33:00.414Z,63.1
2024-02-24T03:34:00.360Z,63.1
2024-02-24T03:35:00.332Z,63.1
2024-02-24T03:36:01.002Z,56.2
2024-02-24T03:37:00.320Z,56.2
2024-02-24T03:38:00.234Z,56.2
2024-02-24T03:39:00.301Z,53.8
2024-02-24T03:40:00.423Z,53.8
2024-02-24T03:41:00.314Z,53.8
2024-02-24T03:42:00.313Z,45.8
2024-02-24T03:43:00.320Z,45.8
2024-02-24T03:44:00.294Z,45.8
2024-02-24T03:45:01.236Z,45.0
2024-02-24T03:46:01.212Z,45.0
2024-02-24T03:47:00.375Z,45.0
2024-02-24T03:48:00.443Z,47.2
2024-02-24T03:49:00.400Z,47.2
2024-02-24T03:50:00.344Z,47.2
2024-02-24T03:51:00.364Z,50.4
2024-02-24T03:52:00.303Z,50.4
2024-02-24T03:53:00.378Z,50.4
2024-02-24T03:54:00.458Z,48.7
2024-02-24T03:55:00.430Z,48.7
2024-02-24T03:56:00.327Z,48.7
2024-02-24T03:57:00.290Z,45.9
2024-02-24T03:58:00.234Z,45.9
2024-02-24T03:59:00.423Z,45.9
2024-02-24T04:00:00.351Z,41.2
2024-02-24T04:01:00.355Z,41.2
2024-02-24T04:02:00.305Z,41.2
2024-02-24T04:03:01.436Z,42.5
2024-02-24T04:04:00.391Z,42.5
2024-02-24T04:05:00.400Z,42.5
2024-02-24T04:06:00.477Z,39.3
2024-02-24T04:07:00.367Z,39.3
2024-02-24T04:08:00.242Z,39.3
2024-02-24T04:09:00.365Z,15.9
2024-02-24T04:10:00.325Z,15.9
2024-02-24T04:11:00.746Z,15.9
2024-02-24T04:12:00.516Z,41.6
2024-02-24T04:13:00.347Z,41.6
2024-02-24T04:14:00.327Z,41.6
2024-02-24T04:15:00.426Z,36.8
2024-02-24T04:16:00.322Z,36.8
2024-02-24T04:17:00.325Z,36.8
2024-02-24T04:18:00.389Z,36.7
2024-02-24T04:19:00.607Z,36.7
2024-02-24T04:20:00.385Z,36.7
2024-02-24T04:21:00.366Z,31.2
2024-02-24T04:22:00.379Z,31.2
2024-02-24T04:23:00.291Z,31.2
2024-02-24T04:24:00.327Z,28.0
2024-02-24T04:25:00.358Z,28.0
2024-02-24T04:26:00.326Z,28.0
2024-02-24T04:27:00.330Z,29.5
2024-02-24T04:28:00.261Z,29.5
2024-02-24T04:29:00.309Z,29.5
2024-02-24T04:30:00.524Z,23.4
2024-02-24T04:31:00.385Z,23.4
2024-02-24T04:32:00.296Z,23.4
2024-02-24T04:33:00.571Z,20.2
2024-02-24T04:34:00.425Z,20.2
2024-02-24T04:35:00.467Z,20.2
2024-02-24T04:36:01.502Z,18.6
2024-02-24T04:37:00.291Z,18.6
2024-02-24T04:38:00.271Z,18.6
2024-02-24T04:39:00.330Z,17.1
2024-02-24T04:40:00.301Z,17.1
2024-02-24T04:41:00.301Z,17.1
2024-02-24T04:42:00.315Z,12.5
2024-02-24T04:43:00.412Z,12.5
2024-02-24T04:44:00.318Z,12.5
2024-02-24T04:45:00.310Z,9.4
2024-02-24T04:46:00.436Z,9.4
2024-02-24T04:47:00.490Z,9.4
2024-02-24T04:48:00.629Z,8.4
2024-02-24T04:49:00.374Z,8.4
2024-02-24T04:50:00.517Z,8.4
2024-02-24T04:51:03.111Z,4.4
2024-02-24T04:52:00.324Z,4.4
2024-02-24T04:53:00.570Z,4.4
2024-02-24T04:54:00.287Z,7.9
2024-02-24T04:55:00.405Z,7.9
2024-02-24T04:56:00.287Z,7.9
2024-02-24T04:57:00.315Z,8.6
2024-02-24T04:58:00.238Z,8.6
2024-02-24T04:59:00.296Z,8.6
2024-02-24T05:00:00.673Z,6.2
2024-02-24T05:01:00.377Z,6.2
2024-02-24T05:02:00.290Z,6.2
2024-02-24T05:03:00.524Z,5.7
2024-02-24T05:04:00.340Z,5.7
2024-02-24T05:05:00.311Z,5.7
2024-02-24T05:06:00.456Z,6.8
2024-02-24T05:07:00.314Z,6.8
2024-02-24T05:08:00.249Z,6.8
2024-02-24T05:09:00.427Z,4.8
2024-02-24T05:10:00.296Z,4.8
2024-02-24T05:11:01.196Z,4.8
2024-02-24T05:12:00.752Z,4.9
2024-02-24T05:13:02.162Z,4.9
2024-02-24T05:14:00.316Z,4.9
2024-02-24T05:15:00.609Z,4.6
2024-02-24T05:16:01.953Z,4.6
2024-02-24T05:17:00.302Z,4.6
2024-02-24T05:18:00.379Z,4.7
2024-02-24T05:19:00.400Z,4.7
2024-02-24T05:20:00.300Z,4.7
2024-02-24T05:21:00.814Z,4.8
2024-02-24T05:22:00.352Z,4.8
2024-02-24T05:23:01.022Z,4.8
2024-02-24T05:24:00.317Z,4.9
2024-02-24T05:25:01.072Z,4.9
2024-02-24T05:26:00.293Z,4.9
2024-02-24T05:27:00.286Z,6.5
2024-02-24T05:28:00.714Z,6.5
2024-02-24T05:29:00.286Z,6.5
2024-02-24T05:30:00.361Z,5.1
2024-02-24T05:31:00.391Z,5.1
2024-02-24T05:32:00.551Z,5.1
2024-02-24T05:33:00.348Z,4.4
2024-02-24T05:34:01.004Z,4.4
2024-02-24T05:35:00.361Z,4.4
2024-02-24T05:36:00.374Z,4.3
2024-02-24T05:37:00.315Z,4.3
2024-02-24T05:38:00.308Z,4.3
2024-02-24T05:39:00.330Z,2.4
2024-02-24T05:40:00.445Z,2.4
2024-02-24T05:41:00.496Z,2.4
2024-02-24T05:42:00.323Z,5.3
2024-02-24T05:43:00.340Z,5.3
2024-02-24T05:44:00.354Z,5.3
2024-02-24T05:45:00.452Z,5.7
2024-02-24T05:46:02.843Z,5.7
2024-02-24T05:47:00.377Z,5.7
2024-02-24T05:48:00.420Z,6.2
2024-02-24T05:49:00.332Z,6.2
2024-02-24T05:50:00.333Z,6.2
2024-02-24T05:51:00.422Z,7.3
2024-02-24T05:52:00.312Z,7.3
2024-02-24T05:53:00.302Z,7.3
2024-02-24T05:54:00.404Z,6.4
2024-02-24T05:55:00.307Z,6.4
2024-02-24T05:56:00.365Z,6.4
2024-02-24T05:57:00.288Z,5.6
2024-02-24T05:58:00.233Z,5.6
2024-02-24T05:59:00.335Z,5.6
2024-02-24T06:00:00.386Z,4.5
2024-02-24T06:01:01.645Z,4.5
2024-02-24T06:02:00.379Z,4.5
2024-02-24T06:03:00.569Z,6.5
2024-02-24T06:04:00.325Z,6.5
2024-02-24T06:05:00.377Z,6.5
2024-02-24T06:06:00.453Z,5.0
2024-02-24T06:07:00.406Z,5.0
2024-02-24T06:08:00.240Z,5.0
2024-02-24T06:09:00.395Z,5.8
2024-02-24T06:10:00.402Z,5.8
2024-02-24T06:11:00.352Z,5.8
2024-02-24T06:12:00.352Z,5.7
2024-02-24T06:13:00.930Z,5.7
2024-02-24T06:14:00.287Z,5.7
2024-02-24T06:15:00.354Z,5.2
2024-02-24T06:16:00.315Z,5.2
2024-02-24T06:17:00.564Z,5.2
2024-02-24T06:18:00.307Z,5.3
2024-02-24T06:19:00.438Z,5.3
2024-02-24T06:20:00.394Z,5.3
2024-02-24T06:21:01.696Z,7.5
2024-02-24T06:22:00.358Z,7.5
2024-02-24T06:23:00.452Z,7.5
2024-02-24T06:24:00.348Z,7.1
2024-02-24T06:25:00.399Z,7.1
2024-02-24T06:26:00.334Z,7.1
2024-02-24T06:27:00.394Z,6.5
2024-02-24T06:28:00.234Z,6.5
2024-02-24T06:29:00.334Z,6.5
2024-02-24T06:30:00.358Z,4.8
2024-02-24T06:31:00.327Z,4.8
2024-02-24T06:32:00.318Z,4.8
2024-02-24T06:33:00.492Z,3.7
2024-02-24T06:34:01.720Z,3.7
2024-02-24T06:35:00.493Z,3.7
2024-02-24T06:36:01.874Z,6.0
2024-02-24T06:37:00.314Z,6.0
2024-02-24T06:38:00.319Z,6.0
2024-02-24T06:39:00.298Z,4.7
2024-02-24T06:40:00.350Z,4.7
2024-02-24T06:41:00.371Z,4.7
2024-02-24T06:42:00.582Z,4.6
2024-02-24T06:43:00.309Z,4.6
2024-02-24T06:44:00.285Z,4.6
2024-02-24T06:45:00.600Z,3.1
2024-02-24T06:46:00.305Z,3.1
2024-02-24T06:47:02.570Z,3.1
2024-02-24T06:48:00.312Z,5.5
2024-02-24T06:49:00.579Z,5.5
2024-02-24T06:50:00.346Z,5.5
2024-02-24T06:51:00.368Z,2.6
2024-02-24T06:52:00.288Z,2.6
2024-02-24T06:53:00.374Z,2.6
2024-02-24T06:54:00.390Z,4.3
2024-02-24T06:55:00.392Z,4.3
2024-02-24T06:56:19.089Z,4.3
2024-02-24T06:57:01.540Z,3.6
2024-02-24T06:58:00.233Z,3.6
2024-02-24T06:59:00.508Z,3.6
2024-02-24T07:00:00.442Z,4.9
2024-02-24T07:01:00.835Z,4.9
2024-02-24T07:02:00.338Z,4.9
2024-02-24T07:03:00.547Z,5.5
2024-02-24T07:04:00.498Z,5.5
2024-02-24T07:05:00.350Z,5.5
2024-02-24T07:06:00.478Z,11.3
2024-02-24T07:07:00.367Z,11.3
2024-02-24T07:08:00.324Z,11.3
2024-02-24T07:09:00.469Z,4.6
2024-02-24T07:10:00.380Z,4.6
2024-02-24T07:11:00.349Z,4.6
2024-02-24T07:12:00.376Z,5.5
2024-02-24T07:13:00.288Z,5.5
2024-02-24T07:14:00.311Z,5.5
2024-02-24T07:15:00.419Z,5.5
2024-02-24T07:16:00.297Z,5.5
2024-02-24T07:17:00.499Z,5.5
2024-02-24T07:18:00.460Z,8.7
2024-02-24T07:19:00.366Z,8.7
2024-02-24T07:20:00.334Z,8.7
2024-02-24T07:21:04.062Z,8.2
2024-02-24T07:22:00.359Z,8.2
2024-02-24T07:23:00.337Z,8.2
2024-02-24T07:24:00.375Z,7.1
2024-02-24T07:25:00.433Z,7.1
2024-02-24T07:26:00.919Z,7.1
2024-02-24T07:27:00.325Z,6.6
2024-02-24T07:28:00.240Z,6.6
2024-02-24T07:29:00.293Z,6.6
2024-02-24T07:30:00.555Z,6.7
2024-02-24T07:31:00.525Z,6.7
2024-02-24T07:32:00.418Z,6.7
2024-02-24T07:33:00.591Z,7.0
2024-02-24T07:34:00.641Z,7.0
2024-02-24T07:35:00.581Z,7.0
2024-02-24T07:36:00.388Z,8.1
2024-02-24T07:37:00.305Z,8.1
2024-02-24T07:38:00.251Z,8.1
2024-02-24T07:39:00.337Z,8.2
2024-02-24T07:40:00.373Z,8.2
2024-02-24T07:41:01.274Z,8.2
2024-02-24T07:42:00.354Z,7.9
2024-02-24T07:43:00.916Z,7.9
2024-02-24T07:44:00.391Z,7.9
2024-02-24T07:45:00.610Z,9.1
2024-02-24T07:46:00.342Z,9.1
2024-02-24T07:47:00.340Z,9.1
2024-02-24T07:48:00.736Z,9.6
2024-02-24T07:49:00.741Z,9.6
2024-02-24T07:50:00.314Z,9.6
2024-02-24T07:51:00.419Z,11.3
2024-02-24T07:52:00.280Z,11.3
2024-02-24T07:53:00.312Z,11.3
2024-02-24T07:54:00.387Z,10.4
2024-02-24T07:55:00.316Z,10.4
2024-02-24T07:56:00.301Z,10.4
2024-02-24T07:57:00.450Z,10.4
2024-02-24T07:58:00.268Z,10.4
2024-02-24T07:59:00.367Z,10.4
2024-02-24T08:00:00.718Z,10.1
2024-02-24T08:01:00.939Z,10.1
2024-02-24T08:02:00.314Z,10.1
2024-02-24T08:03:00.336Z,10.8
2024-02-24T08:04:00.394Z,10.8
2024-02-24T08:05:00.356Z,10.8
2024-02-24T08:06:00.438Z,11.4
2024-02-24T08:07:00.462Z,11.4
2024-02-24T08:08:00.313Z,11.4
2024-02-24T08:09:00.394Z,9.2
2024-02-24T08:10:00.386Z,9.2
2024-02-24T08:11:01.466Z,9.2
2024-02-24T08:12:00.379Z,9.2
2024-02-24T08:13:00.342Z,9.2
2024-02-24T08:14:00.357Z,9.2
2024-02-24T08:15:00.485Z,10.3
2024-02-24T08:16:02.201Z,10.3
2024-02-24T08:17:00.337Z,10.3
2024-02-24T08:18:00.343Z,9.3
2024-02-24T08:19:00.487Z,9.3
2024-02-24T08:20:00.337Z,9.3
2024-02-24T08:21:08.491Z,9.3
2024-02-24T08:22:00.682Z,9.3
2024-02-24T08:23:00.338Z,9.3
2024-02-24T08:24:00.368Z,9.7
2024-02-24T08:25:00.307Z,9.7
2024-02-24T08:26:00.464Z,9.7
2024-02-24T08:27:00.517Z,11.4
2024-02-24T08:28:00.324Z,11.4
2024-02-24T08:29:00.382Z,11.4
2024-02-24T08:30:00.401Z,12.8
2024-02-24T08:31:00.345Z,12.8
2024-02-24T08:32:00.305Z,12.8
2024-02-24T08:33:00.470Z,12.2
2024-02-24T08:34:00.778Z,12.2
2024-02-24T08:35:00.426Z,12.2
2024-02-24T08:36:00.454Z,12.0
2024-02-24T08:37:00.293Z,12.0
2024-02-24T08:38:00.265Z,12.0
2024-02-24T08:39:00.540Z,11.1
2024-02-24T08:40:00.565Z,11.1
2024-02-24T08:41:00.495Z,11.1
2024-02-24T08:42:00.321Z,11.9
2024-02-24T08:43:00.316Z,11.9
2024-02-24T08:44:00.325Z,11.9
2024-02-24T08:45:00.402Z,14.1
2024-02-24T08:46:00.302Z,14.1
2024-02-24T08:47:00.343Z,14.1
2024-02-24T08:48:00.325Z,12.6
2024-02-24T08:49:00.366Z,12.6
2024-02-24T08:50:00.390Z,12.6
2024-02-24T08:51:00.744Z,13.6
2024-02-24T08:52:00.320Z,13.6
2024-02-24T08:53:00.299Z,13.6
2024-02-24T08:54:00.373Z,15.7
2024-02-24T08:55:00.307Z,15.7
2024-02-24T08:56:00.378Z,15.7
2024-02-24T08:57:00.404Z,18.4
2024-02-24T08:58:00.275Z,18.4
2024-02-24T08:59:00.300Z,18.4
2024-02-24T09:00:00.366Z,19.6
2024-02-24T09:01:00.810Z,19.6
2024-02-24T09:02:00.339Z,19.6
2024-02-24T09:03:00.464Z,21.3
2024-02-24T09:04:00.475Z,21.3
2024-02-24T09:05:00.329Z,21.3
2024-02-24T09:06:00.523Z,17.2
2024-02-24T09:07:00.370Z,17.2
2024-02-24T09:08:00.369Z,17.2
2024-02-24T09:09:00.413Z,19.4
2024-02-24T09:10:04.010Z,19.4
2024-02-24T09:11:00.397Z,19.4
2024-02-24T09:12:00.558Z,18.1
2024-02-24T09:13:00.293Z,18.1
2024-02-24T09:14:00.343Z,18.1
2024-02-24T09:15:00.438Z,20.0
2024-02-24T09:16:00.368Z,20.0
2024-02-24T09:17:00.318Z,20.0
2024-02-24T09:18:00.402Z,21.3
2024-02-24T09:19:00.379Z,21.3
2024-02-24T09:20:00.345Z,21.3
2024-02-24T09:21:00.577Z,18.7
2024-02-24T09:22:00.309Z,18.7
2024-02-24T09:23:00.332Z,18.7
2024-02-24T09:24:00.451Z,18.5
2024-02-24T09:25:00.455Z,18.5
2024-02-24T09:26:00.368Z,18.5
2024-02-24T09:27:00.369Z,24.5
2024-02-24T09:28:00.282Z,24.5
2024-02-24T09:29:00.288Z,24.5
2024-02-24T09:30:00.431Z,21.7
2024-02-24T09:31:00.796Z,21.7
2024-02-24T09:32:00.405Z,21.7
2024-02-24T09:33:00.475Z,21.3
2024-02-24T09:34:00.625Z,21.3
2024-02-24T09:35:00.376Z,21.3
2024-02-24T09:36:00.425Z,23.2
2024-02-24T09:37:01.692Z,23.2
2024-02-24T09:38:00.241Z,23.2
2024-02-24T09:39:00.447Z,28.0
2024-02-24T09:40:02.674Z,28.0
2024-02-24T09:41:00.341Z,28.0
2024-02-24T09:42:00.504Z,27.2
2024-02-24T09:43:00.944Z,27.2
2024-02-24T09:44:00.738Z,27.2
2024-02-24T09:45:00.956Z,32.5
2024-02-24T09:46:00.698Z,32.5
2024-02-24T09:47:01.688Z,32.5
2024-02-24T09:48:00.502Z,27.6
2024-02-24T09:49:00.810Z,27.6
2024-02-24T09:50:00.379Z,27.6
2024-02-24T09:51:00.454Z,28.9
2024-02-24T09:52:00.669Z,28.9
2024-02-24T09:53:00.465Z,28.9
2024-02-24T09:54:00.794Z,34.4
2024-02-24T09:55:01.552Z,34.4
2024-02-24T09:56:00.355Z,34.4
2024-02-24T09:57:01.222Z,31.5
2024-02-24T09:58:00.499Z,31.5
2024-02-24T09:59:01.134Z,31.5
2024-02-24T10:00:00.866Z,35.7
2024-02-24T10:01:00.366Z,35.7
2024-02-24T10:02:00.316Z,35.7
2024-02-24T10:03:00.402Z,30.3
2024-02-24T10:04:00.580Z,30.3
2024-02-24T10:05:00.361Z,30.3
2024-02-24T10:06:00.603Z,39.4
2024-02-24T10:07:00.351Z,39.4
2024-02-24T10:08:00.309Z,39.4
2024-02-24T10:09:00.408Z,40.1
2024-02-24T10:10:00.428Z,40.1
2024-02-24T10:11:00.327Z,40.1
2024-02-24T10:12:00.440Z,41.0
2024-02-24T10:13:00.905Z,41.0
2024-02-24T10:14:00.334Z,41.0
2024-02-24T10:15:00.374Z,41.7
2024-02-24T10:16:05.616Z,41.7
2024-02-24T10:17:02.642Z,41.7
2024-02-24T10:18:00.483Z,42.7
2024-02-24T10:19:00.887Z,42.7
2024-02-24T10:20:00.918Z,42.7
2024-02-24T10:21:01.244Z,35.3
2024-02-24T10:22:00.505Z,35.3
2024-02-24T10:23:00.335Z,35.3
2024-02-24T10:24:01.054Z,35.2
2024-02-24T10:25:00.312Z,35.2
2024-02-24T10:26:00.306Z,35.2
2024-02-24T10:27:00.405Z,39.0
2024-02-24T10:28:00.342Z,39.0
2024-02-24T10:29:04.794Z,39.0
2024-02-24T10:30:01.283Z,39.5
2024-02-24T10:31:00.398Z,39.5
2024-02-24T10:32:00.411Z,39.5
2024-02-24T10:33:00.629Z,40.7
2024-02-24T10:34:00.980Z,40.7
2024-02-24T10:35:01.435Z,40.7
2024-02-24T10:36:01.936Z,38.0
2024-02-24T10:37:00.889Z,38.0
2024-02-24T10:38:17.897Z,38.0
2024-02-24T10:39:01.312Z,36.7
2024-02-24T10:40:01.671Z,36.7
2024-02-24T10:41:00.708Z,36.7
2024-02-24T10:42:00.401Z,34.2
2024-02-24T10:43:00.626Z,34.2
2024-02-24T10:44:10.211Z,34.2
2024-02-24T10:45:00.506Z,37.8
2024-02-24T10:46:00.359Z,37.8
2024-02-24T10:47:00.895Z,37.8
2024-02-24T10:48:00.578Z,38.2
2024-02-24T10:49:00.368Z,38.2
2024-02-24T10:50:00.344Z,38.2
2024-02-24T10:51:00.538Z,35.3
2024-02-24T10:52:00.646Z,35.3
2024-02-24T10:53:00.700Z,35.3
2024-02-24T10:54:05.577Z,33.1
2024-02-24T10:55:00.733Z,33.1
2024-02-24T10:56:01.543Z,33.1
2024-02-24T10:57:01.510Z,30.5
2024-02-24T10:58:00.317Z,30.5
2024-02-24T10:59:08.400Z,30.5
2024-02-24T11:00:22.910Z,36.2
2024-02-24T11:01:00.819Z,36.2
2024-02-24T11:02:02.430Z,36.2
2024-02-24T11:03:00.676Z,27.0
2024-02-24T11:04:00.803Z,27.0
2024-02-24T11:05:00.346Z,27.0
2024-02-24T11:06:00.692Z,32.8
2024-02-24T11:07:00.409Z,32.8
2024-02-24T11:08:00.823Z,32.8
2024-02-24T11:09:00.387Z,30.3
2024-02-24T11:10:00.356Z,30.3
2024-02-24T11:11:08.441Z,30.3
2024-02-24T11:13:01.269Z,43.6
2024-02-24T11:14:07.135Z,43.6
2024-02-24T11:15:00.432Z,38.5
2024-02-24T11:16:00.668Z,38.5
2024-02-24T11:17:01.878Z,38.5
2024-02-24T11:18:00.857Z,34.9
2024-02-24T11:19:00.403Z,34.9
2024-02-24T11:20:00.468Z,34.9
2024-02-24T11:21:00.877Z,32.1
2024-02-24T11:22:01.128Z,32.1
2024-02-24T11:24:17.119Z,32.0
2024-02-24T11:25:01.252Z,32.0
2024-02-24T11:27:01.131Z,27.9
2024-02-24T11:28:00.327Z,27.9
2024-02-24T11:29:01.839Z,27.9
2024-02-24T11:31:02.137Z,29.2
2024-02-24T11:34:04.758Z,26.2
2024-02-24T11:35:00.748Z,26.2
2024-02-24T11:36:01.353Z,26.4
2024-02-24T11:37:00.421Z,26.4
2024-02-24T11:38:00.340Z,26.4
2024-02-24T11:39:01.474Z,24.5
2024-02-24T11:40:01.152Z,24.5
2024-02-24T11:41:03.356Z,24.5
2024-02-24T11:42:00.591Z,25.6
2024-02-24T11:43:01.096Z,25.6
2024-02-24T11:44:00.909Z,25.6
2024-02-24T11:45:01.314Z,30.2
2024-02-24T11:46:00.428Z,30.2
2024-02-24T11:47:00.345Z,30.2
2024-02-24T11:48:00.383Z,27.8
2024-02-24T11:49:00.430Z,27.8
2024-02-24T11:50:00.359Z,27.8
2024-02-24T11:51:00.506Z,21.3
2024-02-24T11:52:00.345Z,21.3
2024-02-24T11:53:00.992Z,21.3
2024-02-24T11:54:00.688Z,27.1
2024-02-24T11:55:00.390Z,27.1
2024-02-24T11:56:00.417Z,27.1
2024-02-24T11:57:02.183Z,23.7
2024-02-24T11:58:00.532Z,23.7
2024-02-24T11:59:00.435Z,23.7
2024-02-24T12:00:00.482Z,25.4
2024-02-24T12:01:00.374Z,25.4
2024-02-24T12:02:00.355Z,25.4
2024-02-24T12:03:00.436Z,23.5
2024-02-24T12:04:00.338Z,23.5
2024-02-24T12:05:16.162Z,23.5
2024-02-24T12:06:01.028Z,22.7
2024-02-24T12:07:01.021Z,22.7
2024-02-24T12:08:00.401Z,22.7
2024-02-24T12:09:00.768Z,25.0
2024-02-24T12:10:00.349Z,25.0
2024-02-24T12:11:00.622Z,25.0
2024-02-24T12:12:00.565Z,34.6
2024-02-24T12:13:00.362Z,34.6
2024-02-24T12:14:00.419Z,34.6
2024-02-24T12:15:00.371Z,20.8
2024-02-24T12:16:00.576Z,20.8
2024-02-24T12:17:00.327Z,20.8
2024-02-24T12:18:00.962Z,28.4
2024-02-24T12:19:01.352Z,28.4
2024-02-24T12:22:00.320Z,20.8
2024-02-24T12:24:00.432Z,20.8
2024-02-24T12:25:11.138Z,23.0
2024-02-24T12:27:00.394Z,23.0
2024-02-24T12:28:00.700Z,23.0
2024-02-24T12:31:00.744Z,31.2
2024-02-24T12:33:00.797Z,31.2
2024-02-24T12:35:02.311Z,21.7
2024-02-24T12:36:03.289Z,21.7
2024-02-24T12:38:00.910Z,22.0
2024-02-24T12:39:03.555Z,19.7
2024-02-24T12:40:00.679Z,19.7
2024-02-24T12:43:01.212Z,21.4
2024-02-24T12:44:00.292Z,21.4
2024-02-24T12:47:00.704Z,31.0
2024-02-24T12:50:00.438Z,15.9
2024-02-24T12:54:02.887Z,27.6
2024-02-24T12:55:00.304Z,28.6
2024-02-24T13:02:00.435Z,18.6
2024-02-24T13:04:00.355Z,20.3
2024-02-24T13:05:00.753Z,20.3
2024-02-24T13:06:00.417Z,20.3
2024-02-24T13:07:00.345Z,20.3
2024-02-24T13:08:00.273Z,19.2
2024-02-24T13:09:00.342Z,19.2
2024-02-24T13:12:00.496Z,21.5
2024-02-24T13:13:01.777Z,21.5
2024-02-24T13:16:00.322Z,30.1
2024-02-24T13:21:00.515Z,21.4
2024-02-24T13:22:00.335Z,20.5
2024-02-24T13:28:00.248Z,23.9
2024-02-24T13:30:00.410Z,23.9
2024-02-24T13:38:00.351Z,29.7
2024-02-24T13:39:00.568Z,29.7
2024-02-24T13:40:00.317Z,21.2
2024-02-24T13:41:00.581Z,21.2
2024-02-24T13:42:00.440Z,21.2
2024-02-24T13:46:00.289Z,17.4
2024-02-24T13:47:00.282Z,17.4
2024-02-24T13:48:00.441Z,17.4
2024-02-24T13:49:01.726Z,14.3
2024-02-24T13:50:00.342Z,14.3
2024-02-24T13:51:00.428Z,14.3
2024-02-24T13:52:00.284Z,9.3
2024-02-24T13:53:00.281Z,9.3
2024-02-24T13:54:00.332Z,9.3
2024-02-24T13:57:00.542Z,8.7
2024-02-24T14:01:01.353Z,4.5
2024-02-24T14:03:00.399Z,4.5
2024-02-24T14:04:00.428Z,3.6
2024-02-24T14:05:00.326Z,3.6
2024-02-24T14:06:00.448Z,3.6
2024-02-24T14:07:00.409Z,3.6
2024-02-24T14:08:00.432Z,3.6
2024-02-24T14:09:00.408Z,3.6
2024-02-24T14:10:00.575Z,3.6
2024-02-24T14:11:00.355Z,4.8
2024-02-24T14:13:00.362Z,1.3
2024-02-24T14:15:00.643Z,1.3
2024-02-24T14:16:00.853Z,3.0
2024-02-24T14:19:00.356Z,1.8
2024-02-24T14:21:01.250Z,1.8
2024-02-24T14:22:00.349Z,6.3
2024-02-24T14:23:00.694Z,6.3
2024-02-24T14:24:00.499Z,6.3
2024-02-24T14:25:00.624Z,2.9
2024-02-24T14:26:00.358Z,2.9
2024-02-24T14:27:00.573Z,2.9
2024-02-24T14:28:00.266Z,2.0
2024-02-24T14:29:02.079Z,2.0
2024-02-24T14:30:00.410Z,2.0
2024-02-24T14:31:00.458Z,2.7
2024-02-24T14:32:00.346Z,2.7
2024-02-24T14:33:00.344Z,2.7
2024-02-24T14:34:00.957Z,1.8
2024-02-24T14:35:09.656Z,1.8
2024-02-24T14:36:00.442Z,1.8
2024-02-24T14:37:00.320Z,1.6
2024-02-24T14:38:00.246Z,1.6
2024-02-24T14:39:00.782Z,1.6
2024-02-24T14:43:00.471Z,1.9
2024-02-24T14:44:00.450Z,1.9
2024-02-24T14:45:00.579Z,1.9
2024-02-24T14:46:01.776Z,2.0
2024-02-24T14:47:00.711Z,2.0